createdAt,value
2023-04-02T00:02:31.412Z,95.40
2023-04-02T00:05:51.108Z,95.70
2023-04-02T00:08:56.154Z,95.90
2023-04-02T00:12:00.249Z,95.90
2023-04-02T00:15:02.008Z,96.00
2023-04-02T00:18:04.872Z,96.20
2023-04-02T00:21:21.134Z,96.30
2023-04-02T00:24:22.785Z,96.20
2023-04-02T00:27:24.647Z,96.60
2023-04-02T00:30:26.391Z,96.60
2023-04-02T00:33:31.407Z,96.80
2023-04-02T00:36:34.462Z,97.00
2023-04-02T00:39:41.419Z,97.10
2023-04-02T00:42:44.495Z,97.40
2023-04-02T00:45:51.108Z,97.40
2023-04-02T00:49:10.866Z,97.30
2023-04-02T00:52:20.416Z,97.50
2023-04-02T00:55:27.006Z,97.40
2023-04-02T00:58:35.441Z,97.40
2023-04-02T01:05:02.279Z,97.20
2023-04-02T01:08:19.740Z,97.10
2023-04-02T01:11:42.907Z,96.90
2023-04-02T01:15:04.195Z,96.70
2023-04-02T01:18:36.688Z,96.60
2023-04-02T01:21:44.454Z,96.50
2023-04-02T01:24:47.085Z,96.50
2023-04-02T01:28:06.430Z,96.30
2023-04-02T01:31:09.766Z,96.30
2023-04-02T01:34:16.437Z,96.40
2023-04-02T01:37:34.179Z,96.40
2023-04-02T01:40:43.576Z,96.40
2023-04-02T01:44:07.771Z,96.50
2023-04-02T01:47:15.396Z,96.40
2023-04-02T01:50:19.793Z,96.70
2023-04-02T01:53:24.105Z,96.90
2023-04-02T01:56:27.058Z,96.90
2023-04-02T01:59:32.075Z,97.10
2023-04-02T02:02:34.004Z,97.20
2023-04-02T02:05:36.425Z,97.20
2023-04-02T02:08:39.680Z,97.20
2023-04-02T02:11:41.721Z,97.30
2023-04-02T02:14:49.173Z,97.40
2023-04-02T02:17:55.181Z,97.20
2023-04-02T02:20:59.926Z,97.10
2023-04-02T02:24:04.751Z,97.20
2023-04-02T02:27:24.189Z,97.30
2023-04-02T02:30:32.298Z,97.20
2023-04-02T02:33:48.958Z,97.20
2023-04-02T02:37:00.133Z,97.40
2023-04-02T02:40:06.051Z,97.40
2023-04-02T02:43:12.820Z,97.40
2023-04-02T02:46:18.194Z,97.40
2023-04-02T02:49:28.316Z,97.50
2023-04-02T02:52:36.277Z,97.50
2023-04-02T02:55:38.383Z,97.40
2023-04-02T02:58:39.960Z,97.30
2023-04-02T03:01:43.270Z,97.10
2023-04-02T03:04:53.425Z,97.10
2023-04-02T03:07:57.679Z,97.10
2023-04-02T03:11:23.001Z,97.10
2023-04-02T03:14:32.570Z,97.00
2023-04-02T03:17:34.154Z,97.10
2023-04-02T03:21:06.524Z,97.10
2023-04-02T03:24:49.524Z,97.00
2023-04-02T03:27:56.586Z,97.10
2023-04-02T03:31:03.364Z,97.20
2023-04-02T03:34:13.618Z,97.00
2023-04-02T03:37:32.519Z,97.00
2023-04-02T03:40:44.586Z,97.00
2023-04-02T03:43:51.220Z,96.90
2023-04-02T03:46:57.610Z,96.80
2023-04-02T03:50:07.353Z,96.70
2023-04-02T03:53:09.149Z,96.80
2023-04-02T03:56:27.362Z,96.70
2023-04-02T03:59:39.866Z,96.70
2023-04-02T04:02:46.259Z,96.70
2023-04-02T04:06:10.431Z,96.60
2023-04-02T04:09:33.254Z,96.50
2023-04-02T04:12:36.934Z,96.60
2023-04-02T04:15:47.990Z,96.70
2023-04-02T04:19:06.523Z,96.70
2023-04-02T04:22:19.012Z,96.90
2023-04-02T04:25:33.856Z,96.90
2023-04-02T04:29:16.498Z,96.90
2023-04-02T04:32:27.287Z,97.10
2023-04-02T04:35:39.989Z,97.20
2023-04-02T04:38:49.210Z,97.20
2023-04-02T04:41:53.302Z,97.30
2023-04-02T04:45:13.331Z,97.30
2023-04-02T04:48:22.676Z,97.40
2023-04-02T04:51:47.995Z,97.50
2023-04-02T04:54:49.815Z,97.70
2023-04-02T04:57:56.559Z,97.60
2023-04-02T05:01:12.237Z,97.60
2023-04-02T05:04:32.518Z,97.70
2023-04-02T05:07:48.954Z,97.70
2023-04-02T05:11:00.027Z,97.70
2023-04-02T05:14:06.593Z,97.80
2023-04-02T05:17:16.881Z,97.80
2023-04-02T05:20:31.693Z,97.70
2023-04-02T05:23:49.766Z,97.80
2023-04-02T05:26:53.318Z,97.90
2023-04-02T05:30:07.101Z,97.80
2023-04-02T05:33:30.979Z,97.80
2023-04-02T05:36:33.320Z,97.90
2023-04-02T05:39:35.118Z,97.90
2023-04-02T05:42:38.045Z,97.80
2023-04-02T05:45:43.481Z,97.70
2023-04-02T05:48:51.551Z,97.60
2023-04-02T05:51:59.003Z,97.60
2023-04-02T05:55:12.795Z,97.50
2023-04-02T05:58:35.426Z,97.40
2023-04-02T06:01:47.257Z,97.40
2023-04-02T06:05:11.972Z,97.00
2023-04-02T06:08:21.023Z,96.90
2023-04-02T06:11:32.589Z,96.60
2023-04-02T06:14:34.230Z,96.60
2023-04-02T06:17:52.604Z,96.40
2023-04-02T06:20:55.027Z,96.10
2023-04-02T06:24:01.728Z,95.80
2023-04-02T06:27:08.406Z,95.30
2023-04-02T06:30:18.661Z,95.00
2023-04-02T06:33:20.429Z,94.50
2023-04-02T06:36:24.071Z,94.40
2023-04-02T06:39:27.370Z,94.30
2023-04-02T06:42:36.595Z,93.90
2023-04-02T06:45:41.988Z,93.50
2023-04-02T06:48:44.822Z,92.90
2023-04-02T06:51:48.816Z,92.60
2023-04-02T06:54:50.692Z,92.40
2023-04-02T06:57:52.288Z,91.90
2023-04-02T07:00:54.509Z,91.80
2023-04-02T07:03:56.869Z,91.30
2023-04-02T07:06:58.695Z,91.00
2023-04-02T07:10:00.345Z,90.90
2023-04-02T07:13:02.484Z,90.70
2023-04-02T07:16:04.559Z,90.70
2023-04-02T07:19:06.750Z,90.70
2023-04-02T07:22:08.350Z,90.60
2023-04-02T07:25:10.931Z,90.80
2023-04-02T07:28:14.528Z,90.30
2023-04-02T07:31:34.149Z,90.30
2023-04-02T07:34:36.033Z,89.90
2023-04-02T07:37:38.717Z,89.40
2023-04-02T07:40:40.568Z,88.80
2023-04-02T07:43:43.000Z,88.10
2023-04-02T07:46:44.613Z,87.60
2023-04-02T07:49:46.935Z,87.60
2023-04-02T07:52:48.711Z,87.30
2023-04-02T07:55:52.856Z,87.30
2023-04-02T07:58:54.781Z,86.40
2023-04-02T08:01:56.430Z,86.10
2023-04-02T08:04:58.046Z,88.50
2023-04-02T08:07:59.622Z,91.10
2023-04-02T08:11:01.272Z,93.20
2023-04-02T08:14:02.908Z,94.50
2023-04-02T08:17:04.676Z,95.30
2023-04-02T08:20:08.008Z,96.40
2023-04-02T08:23:16.919Z,97.10
2023-04-02T08:26:18.861Z,96.10
2023-04-02T08:29:21.336Z,97.20
2023-04-02T08:32:24.040Z,97.50
2023-04-02T08:35:26.427Z,97.90
2023-04-02T08:38:28.008Z,98.40
2023-04-02T08:41:34.292Z,98.60
2023-04-02T08:44:57.581Z,99.00
2023-04-02T08:48:03.266Z,98.50
2023-04-02T08:51:07.955Z,98.80
2023-04-02T08:54:21.492Z,98.40
2023-04-02T08:57:36.888Z,98.20
2023-04-02T09:00:48.758Z,97.00
2023-04-02T09:03:51.900Z,96.10
2023-04-02T09:06:56.152Z,95.60
2023-04-02T09:09:58.153Z,95.70
2023-04-02T09:13:00.973Z,95.70
2023-04-02T09:16:12.273Z,96.50
2023-04-02T09:19:19.391Z,96.70
2023-04-02T09:22:27.039Z,97.50
2023-04-02T09:25:32.086Z,97.40
2023-04-02T09:28:33.682Z,97.20
2023-04-02T09:31:44.411Z,96.20
2023-04-02T09:34:46.776Z,94.10
2023-04-02T09:37:54.949Z,95.90
2023-04-02T09:41:01.462Z,96.10
2023-04-02T09:44:23.225Z,96.30
2023-04-02T09:47:27.190Z,95.90
2023-04-02T09:50:33.358Z,96.10
2023-04-02T09:53:39.897Z,95.20
2023-04-02T09:57:03.470Z,95.40
2023-04-02T10:00:32.695Z,93.90
2023-04-02T10:03:34.913Z,93.60
2023-04-02T10:06:36.675Z,91.50
2023-04-02T10:09:38.776Z,91.40
2023-04-02T10:12:42.095Z,89.70
2023-04-02T10:15:50.598Z,89.80
2023-04-02T10:19:16.989Z,91.80
2023-04-02T10:22:21.575Z,91.90
2023-04-02T10:25:28.470Z,92.00
2023-04-02T10:28:45.343Z,92.20
2023-04-02T10:31:56.253Z,93.00
2023-04-02T10:35:03.419Z,93.00
2023-04-02T10:38:26.190Z,93.20
2023-04-02T10:41:47.058Z,93.30
2023-04-02T10:45:00.414Z,92.00
2023-04-02T10:48:28.718Z,92.40
2023-04-02T10:51:48.657Z,93.10
2023-04-02T10:54:55.438Z,92.40
2023-04-02T10:58:03.653Z,91.70
2023-04-02T11:01:13.281Z,90.50
2023-04-02T11:04:21.121Z,91.50
2023-04-02T11:07:27.009Z,88.60
2023-04-02T11:10:31.937Z,88.30
2023-04-02T11:13:50.024Z,87.40
2023-04-02T11:16:54.186Z,87.60
2023-04-02T11:20:34.341Z,86.70
2023-04-02T11:23:51.137Z,86.10
2023-04-02T11:26:53.799Z,84.10
2023-04-02T11:30:24.499Z,81.70
2023-04-02T11:33:44.599Z,83.50
2023-04-02T11:36:53.524Z,83.00
2023-04-02T11:39:58.283Z,83.30
2023-04-02T11:43:38.160Z,83.30
2023-04-02T11:46:42.007Z,81.90
2023-04-02T11:49:55.695Z,82.60
2023-04-02T11:53:02.801Z,81.50
2023-04-02T11:56:29.032Z,82.10
2023-04-02T11:59:46.814Z,81.90
2023-04-02T12:03:17.072Z,82.10
2023-04-02T12:06:47.569Z,80.30
2023-04-02T12:09:58.956Z,80.10
2023-04-02T12:13:00.709Z,79.90
2023-04-02T12:16:03.146Z,80.90
2023-04-02T12:19:09.298Z,80.00
2023-04-02T12:22:20.231Z,79.70
2023-04-02T12:25:31.634Z,80.00
2023-04-02T12:28:38.109Z,79.80
2023-04-02T12:31:47.594Z,80.30
2023-04-02T12:34:51.253Z,80.60
2023-04-02T12:37:53.963Z,79.90
2023-04-02T12:40:58.542Z,79.90
2023-04-02T12:44:02.072Z,80.50
2023-04-02T12:47:04.945Z,79.30
2023-04-02T12:50:12.783Z,79.20
2023-04-02T12:53:21.447Z,79.80
2023-04-02T12:56:23.785Z,79.60
2023-04-02T12:59:36.276Z,78.80
2023-04-02T13:02:46.174Z,79.30
2023-04-02T13:05:56.337Z,78.80
2023-04-02T13:08:59.610Z,77.80
2023-04-02T13:12:02.322Z,79.50
2023-04-02T13:15:07.953Z,79.90
2023-04-02T13:18:12.594Z,80.90
2023-04-02T13:21:18.875Z,80.90
2023-04-02T13:24:28.887Z,79.80
2023-04-02T13:27:30.500Z,79.20
2023-04-02T13:30:32.138Z,79.50
2023-04-02T13:33:33.824Z,79.40
2023-04-02T13:36:35.552Z,78.90
2023-04-02T13:39:37.284Z,78.40
2023-04-02T13:42:42.022Z,78.50
2023-04-02T13:45:47.512Z,78.90
2023-04-02T13:48:51.316Z,79.40
2023-04-02T13:51:58.901Z,78.90
2023-04-02T13:55:01.195Z,79.40
2023-04-02T13:58:03.557Z,78.50
2023-04-02T14:01:05.407Z,79.00
2023-04-02T14:04:07.840Z,78.70
2023-04-02T14:07:47.980Z,79.70
2023-04-02T14:11:03.782Z,79.10
2023-04-02T14:14:24.098Z,79.80
2023-04-02T14:17:50.879Z,79.50
2023-04-02T14:21:11.439Z,79.80
2023-04-02T14:24:32.480Z,80.00
2023-04-02T14:27:44.676Z,79.80
2023-04-02T14:31:17.152Z,78.70
2023-04-02T14:34:48.360Z,78.30
2023-04-02T14:38:14.303Z,77.60
2023-04-02T14:41:34.757Z,77.90
2023-04-02T14:44:42.205Z,78.10
2023-04-02T14:47:55.701Z,78.50
2023-04-02T14:51:14.757Z,78.50
2023-04-02T14:54:34.552Z,77.90
2023-04-02T14:57:48.889Z,78.00
2023-04-02T15:01:13.697Z,78.40
2023-04-02T15:04:21.943Z,78.50
2023-04-02T15:07:28.640Z,78.20
2023-04-02T15:10:41.066Z,78.30
2023-04-02T15:13:42.625Z,78.10
2023-04-02T15:16:44.540Z,78.50
2023-04-02T15:19:46.951Z,78.30
2023-04-02T15:23:16.042Z,77.50
2023-04-02T15:26:23.386Z,76.40
2023-04-02T15:29:47.502Z,76.50
2023-04-02T15:32:49.796Z,76.10
2023-04-02T15:36:03.294Z,76.10
2023-04-02T15:39:42.965Z,75.70
2023-04-02T15:42:56.218Z,75.90
2023-04-02T15:46:16.290Z,75.70
2023-04-02T15:49:43.350Z,75.70
2023-04-02T15:52:58.851Z,75.10
2023-04-02T15:56:46.902Z,76.00
2023-04-02T16:00:26.434Z,76.30
2023-04-02T16:04:11.542Z,75.10
2023-04-02T16:07:23.233Z,74.60
2023-04-02T16:10:42.519Z,74.50
2023-04-02T16:13:45.015Z,74.70
2023-04-02T16:16:49.846Z,73.80
2023-04-02T16:19:56.014Z,75.00
2023-04-02T16:23:13.644Z,74.40
2023-04-02T16:26:24.271Z,73.90
2023-04-02T16:29:54.848Z,73.80
2023-04-02T16:33:10.074Z,73.50
2023-04-02T16:36:39.573Z,73.50
2023-04-02T16:39:53.468Z,73.90
2023-04-02T16:43:09.546Z,74.40
2023-04-02T16:46:39.322Z,74.50
2023-04-02T16:50:01.509Z,73.30
2023-04-02T16:53:28.148Z,74.00
2023-04-02T16:56:58.724Z,73.80
2023-04-02T17:00:04.134Z,73.10
2023-04-02T17:03:28.300Z,72.10
2023-04-02T17:07:13.242Z,72.70
2023-04-02T17:10:39.363Z,71.60
2023-04-02T17:13:43.258Z,72.40
2023-04-02T17:16:47.776Z,72.30
2023-04-02T17:19:55.975Z,71.80
2023-04-02T17:22:58.110Z,71.40
2023-04-02T17:26:06.735Z,70.50
2023-04-02T17:29:13.434Z,70.80
2023-04-02T17:32:22.873Z,69.50
2023-04-02T17:35:53.173Z,69.80
2023-04-02T17:38:57.898Z,69.50
2023-04-02T17:42:15.429Z,69.80
2023-04-02T17:45:36.702Z,69.30
2023-04-02T17:48:48.244Z,69.70
2023-04-02T17:52:02.177Z,69.60
2023-04-02T17:55:11.647Z,69.80
2023-04-02T17:58:34.960Z,70.00
2023-04-02T18:01:46.744Z,69.40
2023-04-02T18:05:17.056Z,69.10
2023-04-02T18:08:49.203Z,69.20
2023-04-02T18:12:24.651Z,69.60
2023-04-02T18:15:51.778Z,69.90
2023-04-02T18:19:03.572Z,69.10
2023-04-02T18:22:23.794Z,69.50
2023-04-02T18:25:34.567Z,69.50
2023-04-02T18:29:13.812Z,69.90
2023-04-02T18:32:40.522Z,70.10
2023-04-02T18:36:00.254Z,69.60
2023-04-02T18:39:20.588Z,70.20
2023-04-02T18:42:55.289Z,69.50
2023-04-02T18:46:18.202Z,68.70
2023-04-02T18:49:37.485Z,69.50
2023-04-02T18:52:41.066Z,70.20
2023-04-02T18:55:51.552Z,69.40
2023-04-02T18:59:06.538Z,69.70
2023-04-02T19:02:42.990Z,69.50
2023-04-02T19:05:57.360Z,69.90
2023-04-02T19:09:02.949Z,69.50
2023-04-02T19:12:16.331Z,69.50
2023-04-02T19:15:20.098Z,69.40
2023-04-02T19:18:36.424Z,69.60
2023-04-02T19:22:17.974Z,69.60
2023-04-02T19:25:45.411Z,69.90
2023-04-02T19:29:03.697Z,69.80
2023-04-02T19:32:36.559Z,69.70
2023-04-02T19:35:55.424Z,70.00
2023-04-02T19:39:25.893Z,69.90
2023-04-02T19:42:30.708Z,69.90
2023-04-02T19:45:54.321Z,70.00
2023-04-02T19:49:05.770Z,69.60
2023-04-02T19:52:07.391Z,69.50
2023-04-02T19:55:09.286Z,69.90
2023-04-02T19:58:28.718Z,69.10
2023-04-02T20:01:30.495Z,68.30
2023-04-02T20:04:32.460Z,68.80
2023-04-02T20:07:34.093Z,68.50
2023-04-02T20:10:35.984Z,67.70
2023-04-02T20:13:37.728Z,68.20
2023-04-02T20:16:39.443Z,68.10
2023-04-02T20:19:41.234Z,67.70
2023-04-02T20:22:42.877Z,67.80
2023-04-02T20:25:53.011Z,67.40
2023-04-02T20:28:54.815Z,66.60
2023-04-02T20:31:56.458Z,67.00
2023-04-02T20:34:58.121Z,67.10
2023-04-02T20:38:00.197Z,67.60
2023-04-02T20:41:03.139Z,68.10
2023-04-02T20:44:04.720Z,67.40
2023-04-02T20:47:07.952Z,67.40
2023-04-02T20:50:10.046Z,67.10
2023-04-02T20:53:11.665Z,67.20
2023-04-02T20:56:16.041Z,66.90
2023-04-02T20:59:17.874Z,67.40
2023-04-02T21:02:19.504Z,67.30
2023-04-02T21:05:21.082Z,66.70
2023-04-02T21:08:22.759Z,67.00
2023-04-02T21:11:26.082Z,67.20
2023-04-02T21:14:27.708Z,67.40
2023-04-02T21:17:29.509Z,67.60
2023-04-02T21:20:32.193Z,67.50
2023-04-02T21:23:34.230Z,68.10
2023-04-02T21:26:38.446Z,68.00
2023-04-02T21:29:40.217Z,67.50
2023-04-02T21:32:41.901Z,66.80
2023-04-02T21:35:43.588Z,67.00
2023-04-02T21:38:47.973Z,66.40
2023-04-02T21:41:52.182Z,66.30
2023-04-02T21:44:53.826Z,65.50
2023-04-02T21:47:55.528Z,66.30
2023-04-02T21:51:05.638Z,66.60
2023-04-02T21:54:07.919Z,66.60
2023-04-02T21:57:09.947Z,66.50
2023-04-02T22:00:13.724Z,67.20
2023-04-02T22:03:25.054Z,67.10
2023-04-02T22:06:37.953Z,67.20
2023-04-02T22:09:39.557Z,67.20
2023-04-02T22:12:41.180Z,67.70
2023-04-02T22:15:42.848Z,67.50
2023-04-02T22:18:45.697Z,67.80
2023-04-02T22:21:47.426Z,67.70
2023-04-02T22:24:49.043Z,68.00
2023-04-02T22:27:51.858Z,68.20
2023-04-02T22:30:54.841Z,68.40
2023-04-02T22:33:57.437Z,68.00
2023-04-02T22:36:59.089Z,68.80
2023-04-02T22:40:00.844Z,68.90
2023-04-02T22:43:02.676Z,69.30
2023-04-02T22:46:06.433Z,69.40
2023-04-02T22:49:08.121Z,69.90
2023-04-02T22:52:09.780Z,70.30
2023-04-02T22:55:15.069Z,70.40
2023-04-02T22:58:16.694Z,70.30
2023-04-02T23:01:30.408Z,70.40
2023-04-02T23:04:31.997Z,70.40
2023-04-02T23:07:36.986Z,70.80
2023-04-02T23:10:38.679Z,70.90
2023-04-02T23:13:41.777Z,70.90
2023-04-02T23:16:43.442Z,71.40
2023-04-02T23:19:45.061Z,71.70
2023-04-02T23:22:46.649Z,71.70
2023-04-02T23:25:48.236Z,71.90
2023-04-02T23:28:50.715Z,72.50
2023-04-02T23:31:52.483Z,72.60
2023-04-02T23:34:54.263Z,72.60
2023-04-02T23:37:55.828Z,73.00
2023-04-02T23:40:57.515Z,73.20
2023-04-02T23:43:59.449Z,73.40
2023-04-02T23:47:02.209Z,73.60
2023-04-02T23:50:04.195Z,74.00
2023-04-02T23:53:05.760Z,74.20
2023-04-02T23:56:07.604Z,74.40
2023-04-02T23:59:09.356Z,74.50
